sensor_id;sensor_type;location;lat;lon;timestamp;P1;durP1;ratioP1;P2;durP2;ratioP2
54545;SDS011;40444;45.184;9.850;2022-12-16T16:48:18;79.47;;;32.87;;
54545;SDS011;40444;45.184;9.850;2022-12-16T16:51:06;80.82;;;35.13;;
54545;SDS011;40444;45.184;9.850;2022-12-16T16:53:53;81.63;;;34.95;;
54545;SDS011;40444;45.184;9.850;2022-12-16T16:56:40;74.72;;;34.03;;
54545;SDS011;40444;45.184;9.850;2022-12-16T16:59:27;74.03;;;33.15;;
54545;SDS011;40444;45.184;9.850;2022-12-16T17:02:21;74.72;;;33.47;;
54545;SDS011;40444;45.184;9.850;2022-12-16T17:05:10;68.22;;;33.38;;
54545;SDS011;40444;45.184;9.850;2022-12-16T17:10:51;60.75;;;30.38;;
54545;SDS011;40444;45.184;9.850;2022-12-16T17:13:39;63.90;;;30.55;;
54545;SDS011;40444;45.184;9.850;2022-12-16T17:16:26;57.83;;;30.50;;
54545;SDS011;40444;45.184;9.850;2022-12-16T17:19:12;48.50;;;26.42;;
54545;SDS011;40444;45.184;9.850;2022-12-16T17:21:59;46.20;;;25.60;;
54545;SDS011;40444;45.184;9.850;2022-12-16T17:24:45;46.38;;;24.27;;
54545;SDS011;40444;45.184;9.850;2022-12-16T17:27:33;35.55;;;22.42;;
54545;SDS011;40444;45.184;9.850;2022-12-16T17:30:20;40.40;;;22.13;;
54545;SDS011;40444;45.184;9.850;2022-12-16T17:33:16;32.78;;;20.60;;
54545;SDS011;40444;45.184;9.850;2022-12-16T17:36:04;33.55;;;20.38;;
54545;SDS011;40444;45.184;9.850;2022-12-16T17:38:57;37.17;;;21.80;;
54545;SDS011;40444;45.184;9.850;2022-12-16T17:41:44;33.17;;;19.90;;
54545;SDS011;40444;45.184;9.850;2022-12-16T17:44:31;32.47;;;21.05;;
54545;SDS011;40444;45.184;9.850;2022-12-16T17:47:18;30.25;;;19.10;;
54545;SDS011;40444;45.184;9.850;2022-12-16T17:50:06;31.25;;;19.73;;
54545;SDS011;40444;45.184;9.850;2022-12-16T17:52:56;30.42;;;19.85;;
54545;SDS011;40444;45.184;9.850;2022-12-16T17:55:44;28.63;;;18.65;;
54545;SDS011;40444;45.184;9.850;2022-12-16T17:58:31;31.00;;;19.23;;
54545;SDS011;40444;45.184;9.850;2022-12-16T18:01:21;29.42;;;17.70;;
54545;SDS011;40444;45.184;9.850;2022-12-16T18:04:08;28.60;;;18.00;;
54545;SDS011;40444;45.184;9.850;2022-12-16T18:06:55;30.75;;;19.38;;
54545;SDS011;40444;45.184;9.850;2022-12-16T18:09:42;31.20;;;19.33;;
54545;SDS011;40444;45.184;9.850;2022-12-16T18:12:28;28.30;;;18.88;;
54545;SDS011;40444;45.184;9.850;2022-12-16T18:15:15;25.10;;;17.95;;
54545;SDS011;40444;45.184;9.850;2022-12-16T18:18:02;28.98;;;18.95;;
54545;SDS011;40444;45.184;9.850;2022-12-16T18:20:49;30.67;;;19.45;;
54545;SDS011;40444;45.184;9.850;2022-12-16T18:23:36;30.85;;;18.92;;
54545;SDS011;40444;45.184;9.850;2022-12-16T18:26:23;29.30;;;19.38;;
54545;SDS011;40444;45.184;9.850;2022-12-16T18:29:09;28.45;;;18.42;;
54545;SDS011;40444;45.184;9.850;2022-12-16T18:31:56;29.23;;;17.33;;
54545;SDS011;40444;45.184;9.850;2022-12-16T18:34:43;24.95;;;17.58;;
54545;SDS011;40444;45.184;9.850;2022-12-16T18:37:29;26.02;;;17.55;;
54545;SDS011;40444;45.184;9.850;2022-12-16T18:40:15;28.17;;;17.80;;
54545;SDS011;40444;45.184;9.850;2022-12-16T18:43:02;29.20;;;18.00;;
54545;SDS011;40444;45.184;9.850;2022-12-16T18:45:52;28.83;;;18.87;;
54545;SDS011;40444;45.184;9.850;2022-12-16T18:48:39;29.35;;;18.85;;
54545;SDS011;40444;45.184;9.850;2022-12-16T18:51:26;30.88;;;19.80;;
54545;SDS011;40444;45.184;9.850;2022-12-16T18:54:13;34.50;;;19.38;;
54545;SDS011;40444;45.184;9.850;2022-12-16T18:57:00;31.23;;;19.05;;
54545;SDS011;40444;45.184;9.850;2022-12-16T18:59:46;30.90;;;19.50;;
54545;SDS011;40444;45.184;9.850;2022-12-16T19:02:34;28.65;;;19.15;;
54545;SDS011;40444;45.184;9.850;2022-12-16T19:05:20;32.23;;;19.90;;
54545;SDS011;40444;45.184;9.850;2022-12-16T19:08:07;30.23;;;19.08;;
54545;SDS011;40444;45.184;9.850;2022-12-16T19:10:57;33.53;;;20.13;;
54545;SDS011;40444;45.184;9.850;2022-12-16T19:13:44;32.97;;;20.48;;
54545;SDS011;40444;45.184;9.850;2022-12-16T19:16:31;32.30;;;20.92;;
54545;SDS011;40444;45.184;9.850;2022-12-16T19:19:18;36.60;;;23.50;;
54545;SDS011;40444;45.184;9.850;2022-12-16T19:22:05;33.15;;;21.50;;
54545;SDS011;40444;45.184;9.850;2022-12-16T19:24:51;32.45;;;20.70;;
54545;SDS011;40444;45.184;9.850;2022-12-16T19:27:38;36.17;;;21.15;;
54545;SDS011;40444;45.184;9.850;2022-12-16T19:30:24;34.80;;;21.20;;
54545;SDS011;40444;45.184;9.850;2022-12-16T19:33:11;33.92;;;21.33;;
54545;SDS011;40444;45.184;9.850;2022-12-16T19:35:58;34.42;;;21.05;;
54545;SDS011;40444;45.184;9.850;2022-12-16T19:38:44;36.25;;;20.55;;
54545;SDS011;40444;45.184;9.850;2022-12-16T19:41:31;39.13;;;23.08;;
54545;SDS011;40444;45.184;9.850;2022-12-16T19:44:18;38.03;;;21.58;;
54545;SDS011;40444;45.184;9.850;2022-12-16T19:47:04;40.60;;;22.92;;
54545;SDS011;40444;45.184;9.850;2022-12-16T19:49:51;35.53;;;21.10;;
54545;SDS011;40444;45.184;9.850;2022-12-16T19:52:38;41.10;;;24.08;;
54545;SDS011;40444;45.184;9.850;2022-12-16T19:55:25;37.43;;;22.87;;
54545;SDS011;40444;45.184;9.850;2022-12-16T19:58:12;41.45;;;24.85;;
54545;SDS011;40444;45.184;9.850;2022-12-16T20:01:04;37.03;;;23.48;;
54545;SDS011;40444;45.184;9.850;2022-12-16T20:03:54;42.55;;;22.75;;
54545;SDS011;40444;45.184;9.850;2022-12-16T20:06:41;37.85;;;23.50;;
54545;SDS011;40444;45.184;9.850;2022-12-16T20:09:28;37.33;;;22.67;;
54545;SDS011;40444;45.184;9.850;2022-12-16T20:12:14;37.67;;;23.40;;
54545;SDS011;40444;45.184;9.850;2022-12-16T20:15:01;38.25;;;23.33;;
54545;SDS011;40444;45.184;9.850;2022-12-16T20:17:48;38.05;;;23.98;;
54545;SDS011;40444;45.184;9.850;2022-12-16T20:20:34;36.20;;;22.05;;
54545;SDS011;40444;45.184;9.850;2022-12-16T20:23:21;39.72;;;24.08;;
54545;SDS011;40444;45.184;9.850;2022-12-16T20:26:09;39.30;;;23.13;;
54545;SDS011;40444;45.184;9.850;2022-12-16T20:28:56;37.83;;;22.15;;
54545;SDS011;40444;45.184;9.850;2022-12-16T20:31:43;39.10;;;24.33;;
54545;SDS011;40444;45.184;9.850;2022-12-16T20:34:30;35.90;;;22.00;;
54545;SDS011;40444;45.184;9.850;2022-12-16T20:40:04;38.45;;;23.95;;
54545;SDS011;40444;45.184;9.850;2022-12-16T20:43:11;39.17;;;22.30;;
54545;SDS011;40444;45.184;9.850;2022-12-16T20:45:58;44.78;;;23.90;;
54545;SDS011;40444;45.184;9.850;2022-12-16T20:48:45;36.95;;;21.70;;
54545;SDS011;40444;45.184;9.850;2022-12-16T20:51:32;37.08;;;22.35;;
54545;SDS011;40444;45.184;9.850;2022-12-16T20:54:22;40.00;;;22.50;;
54545;SDS011;40444;45.184;9.850;2022-12-16T20:57:09;37.75;;;23.15;;
54545;SDS011;40444;45.184;9.850;2022-12-16T20:59:56;39.72;;;22.77;;
54545;SDS011;40444;45.184;9.850;2022-12-16T21:02:43;38.10;;;23.17;;
54545;SDS011;40444;45.184;9.850;2022-12-16T21:05:30;36.80;;;22.27;;
54545;SDS011;40444;45.184;9.850;2022-12-16T21:08:16;37.20;;;21.88;;
54545;SDS011;40444;45.184;9.850;2022-12-16T21:11:03;37.63;;;23.70;;
54545;SDS011;40444;45.184;9.850;2022-12-16T21:13:49;35.25;;;22.40;;
54545;SDS011;40444;45.184;9.850;2022-12-16T21:16:36;40.22;;;23.23;;
54545;SDS011;40444;45.184;9.850;2022-12-16T21:19:23;40.50;;;23.33;;
54545;SDS011;40444;45.184;9.850;2022-12-16T21:22:10;33.90;;;22.63;;
54545;SDS011;40444;45.184;9.850;2022-12-16T21:24:58;39.10;;;23.92;;
54545;SDS011;40444;45.184;9.850;2022-12-16T21:27:54;36.78;;;22.80;;
54545;SDS011;40444;45.184;9.850;2022-12-16T21:30:42;41.53;;;25.30;;
54545;SDS011;40444;45.184;9.850;2022-12-16T21:33:30;39.88;;;25.08;;
54545;SDS011;40444;45.184;9.850;2022-12-16T21:36:18;37.80;;;24.05;;
54545;SDS011;40444;45.184;9.850;2022-12-16T21:39:04;38.75;;;24.52;;
54545;SDS011;40444;45.184;9.850;2022-12-16T21:41:51;39.08;;;24.20;;
54545;SDS011;40444;45.184;9.850;2022-12-16T21:44:38;37.10;;;23.90;;
54545;SDS011;40444;45.184;9.850;2022-12-16T21:47:25;35.17;;;24.05;;
54545;SDS011;40444;45.184;9.850;2022-12-16T21:50:12;37.72;;;23.42;;
54545;SDS011;40444;45.184;9.850;2022-12-16T21:52:58;36.33;;;22.95;;
54545;SDS011;40444;45.184;9.850;2022-12-16T21:55:50;32.43;;;22.23;;
54545;SDS011;40444;45.184;9.850;2022-12-16T21:58:37;35.75;;;23.75;;
54545;SDS011;40444;45.184;9.850;2022-12-16T22:01:24;36.33;;;22.08;;
54545;SDS011;40444;45.184;9.850;2022-12-16T22:04:11;35.08;;;21.92;;
54545;SDS011;40444;45.184;9.850;2022-12-16T22:06:58;37.20;;;23.75;;
54545;SDS011;40444;45.184;9.850;2022-12-16T22:09:45;38.17;;;23.75;;
54545;SDS011;40444;45.184;9.850;2022-12-16T22:12:32;38.25;;;23.63;;
54545;SDS011;40444;45.184;9.850;2022-12-16T22:15:22;33.95;;;22.98;;
54545;SDS011;40444;45.184;9.850;2022-12-16T22:18:09;38.45;;;23.77;;
54545;SDS011;40444;45.184;9.850;2022-12-16T22:20:57;37.75;;;24.17;;
54545;SDS011;40444;45.184;9.850;2022-12-16T22:23:45;36.67;;;24.05;;
54545;SDS011;40444;45.184;9.850;2022-12-16T22:26:32;36.40;;;23.25;;
54545;SDS011;40444;45.184;9.850;2022-12-16T22:29:19;33.40;;;22.23;;
54545;SDS011;40444;45.184;9.850;2022-12-16T22:32:06;33.17;;;22.48;;
54545;SDS011;40444;45.184;9.850;2022-12-16T22:34:53;34.75;;;21.73;;
54545;SDS011;40444;45.184;9.850;2022-12-16T22:37:39;34.08;;;22.33;;
54545;SDS011;40444;45.184;9.850;2022-12-16T22:40:26;35.00;;;22.02;;
54545;SDS011;40444;45.184;9.850;2022-12-16T22:43:12;32.97;;;21.40;;
54545;SDS011;40444;45.184;9.850;2022-12-16T22:46:13;33.25;;;21.75;;
54545;SDS011;40444;45.184;9.850;2022-12-16T22:49:00;33.20;;;20.63;;
54545;SDS011;40444;45.184;9.850;2022-12-16T22:51:46;33.50;;;20.95;;
54545;SDS011;40444;45.184;9.850;2022-12-16T22:54:33;29.67;;;20.97;;
54545;SDS011;40444;45.184;9.850;2022-12-16T22:57:19;29.95;;;20.83;;
54545;SDS011;40444;45.184;9.850;2022-12-16T23:00:06;30.60;;;21.05;;
54545;SDS011;40444;45.184;9.850;2022-12-16T23:02:55;28.38;;;19.95;;
54545;SDS011;40444;45.184;9.850;2022-12-16T23:05:43;31.17;;;20.52;;
54545;SDS011;40444;45.184;9.850;2022-12-16T23:08:30;27.90;;;19.77;;
54545;SDS011;40444;45.184;9.850;2022-12-16T23:11:22;30.27;;;20.23;;
54545;SDS011;40444;45.184;9.850;2022-12-16T23:17:09;26.85;;;18.55;;
54545;SDS011;40444;45.184;9.850;2022-12-16T23:19:58;27.90;;;19.30;;
54545;SDS011;40444;45.184;9.850;2022-12-16T23:22:45;27.45;;;19.77;;
54545;SDS011;40444;45.184;9.850;2022-12-16T23:25:31;26.85;;;19.75;;
54545;SDS011;40444;45.184;9.850;2022-12-16T23:28:18;27.05;;;19.15;;
54545;SDS011;40444;45.184;9.850;2022-12-16T23:31:04;29.85;;;19.63;;
54545;SDS011;40444;45.184;9.850;2022-12-16T23:33:52;27.25;;;19.65;;
54545;SDS011;40444;45.184;9.850;2022-12-16T23:36:38;25.25;;;19.08;;
54545;SDS011;40444;45.184;9.850;2022-12-16T23:39:25;27.67;;;19.15;;
54545;SDS011;40444;45.184;9.850;2022-12-16T23:42:11;24.25;;;18.95;;
54545;SDS011;40444;45.184;9.850;2022-12-16T23:44:58;27.80;;;19.08;;
54545;SDS011;40444;45.184;9.850;2022-12-16T23:47:45;25.50;;;18.42;;
54545;SDS011;40444;45.184;9.850;2022-12-16T23:50:32;27.15;;;18.20;;
54545;SDS011;40444;45.184;9.850;2022-12-16T23:53:22;22.70;;;17.30;;
54545;SDS011;40444;45.184;9.850;2022-12-16T23:56:09;23.63;;;18.92;;
54545;SDS011;40444;45.184;9.850;2022-12-16T23:58:55;26.50;;;18.45;;
